Lorraine — A8IZ3 — position and weather

sailwx.info

Track history (hours):
 
Tides and Currents Weather Stations Pressure Air Temp Water Temp Dewpoint Dewpoint Depression Visibility Wind Speed Wind Dir Waves Ship Positions

Lorraine

Last reported at 2017-Mar-12 22:16 UTC. Time now 2017-Mar-26 11:17 UTC.
Position N 38°37' E 122°07'.
Warning: this ship's position is 13 days out of date.

Length 221 m; draft 10.6 m.

Type: Ship. MMSI: 636012905.

Date/timePositionNaut miles runAvg speedWind from/ knotsBaromVisibWave heightAir tempDewpointWater temp
2017-Mar-12 22:16N 38°37' E 122°07'1014.3
2017-Mar-12 21:32N 38°46' E 122°01'10 0.8
2017-Mar-12 09:18N 38°56' E 121°56'1013.1
2017-Mar-12 08:33N 38°46' E 121°52'1716.2
2017-Mar-12 07:29N 38°32' E 121°39'1718.1
2017-Mar-12 06:33N 38°30' E 121°18'1717.1
2017-Mar-12 05:33N 38°33' E 120°56'1716.5
2017-Mar-12 04:33N 38°36' E 120°36'10 0.3
2017-Mar-10 16:32N 38°41' E 120°25'1212.7
2017-Mar-10 15:33N 38°38' E 120°40'1312.9
2017-Mar-10 14:33N 38°35' E 120°56'1413.6
2017-Mar-10 13:31N 38°28' E 121°12'1513.6
2017-Mar-10 12:27N 38°20' E 121°28'4013.5
2017-Mar-10 09:29N 38°01' E 122°12'1313.6
2017-Mar-10 08:31N 37°55' E 122°27'  
Track history (hours):
 
Tides and Currents Weather Stations Pressure Air Temp Water Temp Dewpoint Dewpoint Depression Visibility Wind Speed Wind Dir Waves Ship Positions

Lorraine

Last reported at 2017-Mar-12 22:16 UTC. Time now 2017-Mar-26 11:17 UTC.
Position N 38°37' E 122°07'.
Warning: this ship's position is 13 days out of date.

Length 221 m; draft 10.6 m.

Type: Ship. MMSI: 636012905.

Date/timePositionNaut miles runAvg speedWind from/ knotsBaromVisibWave heightAir tempDewpointWater temp
2017-Mar-12 22:16N 38°37' E 122°07'1014.3
2017-Mar-12 21:32N 38°46' E 122°01'10 0.8
2017-Mar-12 09:18N 38°56' E 121°56'1013.1
2017-Mar-12 08:33N 38°46' E 121°52'1716.2
2017-Mar-12 07:29N 38°32' E 121°39'1718.1
2017-Mar-12 06:33N 38°30' E 121°18'1717.1
2017-Mar-12 05:33N 38°33' E 120°56'1716.5
2017-Mar-12 04:33N 38°36' E 120°36'10 0.3
2017-Mar-10 16:32N 38°41' E 120°25'1212.7
2017-Mar-10 15:33N 38°38' E 120°40'1312.9
2017-Mar-10 14:33N 38°35' E 120°56'1413.6
2017-Mar-10 13:31N 38°28' E 121°12'1513.6
2017-Mar-10 12:27N 38°20' E 121°28'4013.5
2017-Mar-10 09:29N 38°01' E 122°12'1313.6
2017-Mar-10 08:31N 37°55' E 122°27'  

Dump ship's entire track history